createdAt,value
2018-08-13T00:01:23.959Z,0.77
2018-08-13T00:03:52.216Z,1.00
2018-08-13T00:06:20.527Z,0.63
2018-08-13T00:08:48.797Z,0.93
2018-08-13T00:11:18.231Z,0.80
2018-08-13T00:13:46.471Z,0.87
2018-08-13T00:16:14.717Z,0.80
2018-08-13T00:18:43.049Z,0.90
2018-08-13T00:21:11.368Z,0.80
2018-08-13T00:24:11.339Z,1.00
2018-08-13T00:26:39.610Z,0.90
2018-08-13T00:29:07.844Z,0.80
2018-08-13T00:31:36.131Z,0.90
2018-08-13T00:34:05.145Z,0.90
2018-08-13T00:36:33.479Z,0.70
2018-08-13T00:39:01.795Z,0.80
2018-08-13T00:41:30.079Z,0.80
2018-08-13T00:43:58.319Z,1.10
2018-08-13T00:46:26.595Z,0.90
2018-08-13T00:48:55.690Z,0.70
2018-08-13T00:51:23.946Z,0.90
2018-08-13T00:53:52.191Z,0.80
2018-08-13T00:56:20.484Z,0.70
2018-08-13T00:58:48.727Z,0.77
2018-08-13T01:01:16.988Z,0.90
2018-08-13T01:03:45.207Z,0.60
2018-08-13T01:06:13.436Z,0.67
2018-08-13T01:08:41.723Z,0.97
2018-08-13T01:11:09.985Z,0.70
2018-08-13T01:13:38.325Z,0.90
2018-08-13T01:16:07.951Z,0.87
2018-08-13T01:18:36.221Z,1.00
2018-08-13T01:21:04.477Z,0.70
2018-08-13T01:23:32.750Z,0.70
2018-08-13T01:26:00.990Z,0.80
2018-08-13T01:28:29.254Z,0.87
2018-08-13T01:30:57.575Z,1.10
2018-08-13T01:33:25.824Z,0.90
2018-08-13T01:35:54.062Z,0.93
2018-08-13T01:38:22.347Z,0.70
2018-08-13T01:40:50.571Z,0.80
2018-08-13T01:43:18.874Z,0.80
2018-08-13T01:45:47.152Z,0.80
2018-08-13T01:48:15.448Z,0.70
2018-08-13T01:50:43.678Z,0.80
2018-08-13T01:53:11.988Z,0.93
2018-08-13T01:55:40.299Z,0.70
2018-08-13T01:58:12.486Z,0.83
2018-08-13T02:00:40.733Z,0.83
2018-08-13T02:03:08.985Z,0.80
2018-08-13T02:05:37.295Z,0.90
2018-08-13T02:08:05.573Z,1.13
2018-08-13T02:10:33.772Z,0.80
2018-08-13T02:13:02.099Z,0.80
2018-08-13T02:15:30.345Z,1.07
2018-08-13T02:17:58.660Z,0.80
2018-08-13T02:20:26.983Z,0.90
2018-08-13T02:22:55.244Z,0.60
2018-08-13T02:25:23.536Z,0.70
2018-08-13T02:27:51.803Z,0.80
2018-08-13T02:30:20.093Z,0.70
2018-08-13T02:32:48.388Z,0.80
2018-08-13T02:35:16.691Z,0.77
2018-08-13T02:37:44.957Z,0.93
2018-08-13T02:40:13.759Z,1.20
2018-08-13T02:42:42.179Z,0.70
2018-08-13T02:45:11.424Z,1.10
2018-08-13T02:47:39.715Z,0.90
2018-08-13T02:50:10.476Z,0.70
2018-08-13T02:52:39.072Z,0.80
2018-08-13T02:55:08.939Z,0.90
2018-08-13T02:57:37.280Z,1.10
2018-08-13T03:00:06.661Z,0.77
2018-08-13T03:02:34.926Z,0.80
2018-08-13T03:05:03.233Z,0.80
2018-08-13T03:07:31.497Z,1.00
2018-08-13T03:09:59.806Z,1.00
2018-08-13T03:12:28.068Z,0.90
2018-08-13T03:14:56.311Z,1.00
2018-08-13T03:17:29.628Z,0.70
2018-08-13T03:19:58.687Z,0.73
2018-08-13T03:22:27.362Z,0.73
2018-08-13T03:24:55.615Z,0.80
2018-08-13T03:27:23.962Z,0.60
2018-08-13T03:29:52.284Z,0.80
2018-08-13T03:32:22.796Z,0.80
2018-08-13T03:34:51.035Z,0.70
2018-08-13T03:37:19.293Z,0.80
2018-08-13T03:39:47.617Z,0.70
2018-08-13T03:42:18.685Z,0.60
2018-08-13T03:44:47.037Z,0.83
2018-08-13T03:47:15.417Z,0.70
2018-08-13T03:49:43.631Z,0.80
2018-08-13T03:52:11.916Z,1.10
2018-08-13T03:54:40.138Z,0.80
2018-08-13T03:57:08.464Z,0.70
2018-08-13T03:59:36.944Z,0.90
2018-08-13T04:02:05.192Z,0.80
2018-08-13T04:04:39.979Z,0.60
2018-08-13T04:07:08.210Z,0.80
2018-08-13T04:09:36.452Z,1.07
2018-08-13T04:12:04.759Z,0.80
2018-08-13T04:14:33.026Z,0.67
2018-08-13T04:17:02.771Z,0.70
2018-08-13T04:19:32.979Z,0.77
2018-08-13T04:22:02.228Z,0.80
2018-08-13T04:24:30.668Z,0.80
2018-08-13T04:26:59.671Z,0.80
2018-08-13T04:29:28.897Z,0.83
2018-08-13T04:31:57.188Z,0.77
2018-08-13T04:34:25.521Z,0.80
2018-08-13T04:36:53.779Z,0.60
2018-08-13T04:39:22.088Z,0.90
2018-08-13T04:41:50.352Z,1.00
2018-08-13T04:44:18.617Z,1.27
2018-08-13T04:46:49.536Z,1.03
2018-08-13T04:49:17.783Z,0.93
2018-08-13T04:51:46.050Z,0.50
2018-08-13T04:54:14.298Z,0.87
2018-08-13T04:56:42.568Z,0.97
2018-08-13T04:59:10.835Z,1.00
2018-08-13T05:01:39.099Z,0.87
2018-08-13T05:04:07.439Z,0.67
2018-08-13T05:06:35.751Z,0.90
2018-08-13T05:09:06.423Z,0.77
2018-08-13T05:11:34.793Z,1.20
2018-08-13T05:14:03.095Z,1.00
2018-08-13T05:16:31.448Z,1.00
2018-08-13T05:18:59.672Z,0.90
2018-08-13T05:21:27.968Z,0.97
2018-08-13T05:23:56.267Z,1.30
2018-08-13T05:26:27.037Z,0.80
2018-08-13T05:28:55.524Z,1.10
2018-08-13T05:31:23.730Z,0.90
2018-08-13T05:33:52.019Z,1.10
2018-08-13T05:36:20.302Z,1.10
2018-08-13T05:38:48.543Z,1.00
2018-08-13T05:41:16.876Z,0.80
2018-08-13T05:43:45.131Z,1.00
2018-08-13T05:46:13.468Z,1.10
2018-08-13T05:48:41.780Z,1.10
2018-08-13T05:51:10.050Z,1.20
2018-08-13T05:53:38.337Z,1.00
2018-08-13T05:56:06.614Z,1.23
2018-08-13T05:58:34.866Z,1.20
2018-08-13T06:01:03.154Z,1.03
2018-08-13T06:03:31.424Z,1.30
2018-08-13T06:05:59.676Z,1.20
2018-08-13T06:08:28.674Z,1.30
2018-08-13T06:10:56.893Z,1.20
2018-08-13T06:13:25.250Z,1.00
2018-08-13T06:15:53.548Z,1.10
2018-08-13T06:18:21.824Z,1.10
2018-08-13T06:20:50.111Z,1.10
2018-08-13T06:23:18.336Z,1.23
2018-08-13T06:25:46.614Z,1.53
2018-08-13T06:28:14.913Z,1.50
2018-08-13T06:30:43.179Z,1.30
2018-08-13T06:33:11.443Z,1.30
2018-08-13T06:35:39.676Z,1.50
2018-08-13T06:38:07.939Z,1.53
2018-08-13T06:40:36.928Z,1.30
2018-08-13T06:43:05.259Z,1.43
2018-08-13T06:45:33.563Z,1.20
2018-08-13T06:48:01.831Z,1.27
2018-08-13T06:50:32.051Z,1.70
2018-08-13T06:53:00.264Z,1.90
2018-08-13T06:55:28.704Z,1.60
2018-08-13T06:57:56.953Z,1.60
2018-08-13T07:00:25.179Z,1.50
2018-08-13T07:02:53.479Z,1.60
2018-08-13T07:05:21.852Z,1.40
2018-08-13T07:07:50.064Z,1.47
2018-08-13T07:10:18.321Z,1.83
2018-08-13T07:12:47.054Z,1.60
2018-08-13T07:15:15.944Z,1.97
2018-08-13T07:17:44.224Z,1.57
2018-08-13T07:20:15.047Z,1.33
2018-08-13T07:22:44.193Z,1.23
2018-08-13T07:25:12.448Z,1.43
2018-08-13T07:27:41.339Z,1.50
2018-08-13T07:30:12.342Z,1.30
2018-08-13T07:32:40.888Z,1.50
2018-08-13T07:35:09.572Z,1.50
2018-08-13T07:37:37.792Z,1.57
2018-08-13T07:40:08.181Z,1.40
2018-08-13T07:42:36.502Z,1.50
2018-08-13T07:45:05.795Z,1.60
2018-08-13T07:47:34.058Z,1.67
2018-08-13T07:50:02.603Z,1.70
2018-08-13T07:52:30.894Z,1.47
2018-08-13T07:54:59.167Z,1.40
2018-08-13T07:57:27.384Z,1.47
2018-08-13T07:59:55.632Z,1.70
2018-08-13T08:02:23.899Z,1.80
2018-08-13T08:04:52.199Z,1.80
2018-08-13T08:07:20.480Z,1.57
2018-08-13T08:09:48.778Z,1.40
2018-08-13T08:12:17.100Z,1.60
2018-08-13T08:14:45.478Z,1.60
2018-08-13T08:17:13.699Z,1.50
2018-08-13T08:19:41.963Z,1.50
2018-08-13T08:22:10.270Z,1.40
2018-08-13T08:24:38.611Z,1.50
2018-08-13T08:27:07.380Z,1.20
2018-08-13T08:29:35.750Z,1.40
2018-08-13T08:32:04.113Z,1.47
2018-08-13T08:34:32.348Z,1.10
2018-08-13T08:37:00.563Z,1.20
2018-08-13T08:39:28.822Z,1.13
2018-08-13T08:41:57.137Z,1.33
2018-08-13T08:44:25.439Z,1.30
2018-08-13T08:46:53.744Z,1.20
2018-08-13T08:49:21.976Z,1.23
2018-08-13T08:51:50.320Z,1.50
2018-08-13T08:54:18.575Z,1.30
2018-08-13T08:56:46.892Z,1.60
2018-08-13T08:59:15.276Z,1.70
2018-08-13T09:01:43.499Z,1.50
2018-08-13T09:04:11.755Z,1.73
2018-08-13T09:06:40.003Z,1.80
2018-08-13T09:09:10.629Z,1.30
2018-08-13T09:11:38.864Z,1.57
2018-08-13T09:14:07.790Z,1.20
2018-08-13T09:16:36.131Z,1.23
2018-08-13T09:19:15.746Z,1.47
2018-08-13T09:21:43.990Z,1.40
2018-08-13T09:24:23.792Z,1.70
2018-08-13T09:27:03.472Z,1.67
2018-08-13T09:29:43.159Z,1.13
2018-08-13T09:32:26.232Z,1.63
2018-08-13T09:35:26.968Z,1.60
2018-08-13T09:37:55.954Z,1.43
2018-08-13T09:40:24.832Z,1.77
2018-08-13T09:42:53.106Z,1.70
2018-08-13T09:45:21.363Z,1.43
2018-08-13T09:47:49.704Z,1.70
2018-08-13T09:50:18.774Z,1.77
2018-08-13T09:52:47.789Z,1.63
2018-08-13T09:55:16.928Z,1.83
2018-08-13T09:57:46.099Z,1.80
2018-08-13T10:00:21.028Z,1.50
2018-08-13T10:02:49.687Z,1.90
2018-08-13T10:05:18.123Z,1.80
2018-08-13T10:07:46.852Z,2.00
2018-08-13T10:10:15.850Z,1.80
2018-08-13T10:12:44.738Z,2.03
2018-08-13T10:15:13.501Z,2.00
2018-08-13T10:17:41.824Z,1.90
2018-08-13T10:20:15.912Z,1.80
2018-08-13T10:22:44.238Z,1.77
2018-08-13T10:25:12.877Z,1.90
2018-08-13T10:27:41.462Z,2.30
2018-08-13T10:30:11.044Z,1.73
2018-08-13T10:32:40.260Z,2.10
2018-08-13T10:35:08.703Z,2.23
2018-08-13T10:37:37.423Z,2.07
2018-08-13T10:40:09.877Z,1.77
2018-08-13T10:42:38.400Z,2.03
2018-08-13T10:45:06.879Z,2.00
2018-08-13T10:47:35.120Z,1.87
2018-08-13T10:50:03.503Z,1.93
2018-08-13T10:52:31.787Z,1.90
2018-08-13T10:55:00.044Z,2.13
2018-08-13T10:57:28.322Z,2.27
2018-08-13T10:59:56.597Z,1.97
2018-08-13T11:02:24.990Z,2.43
2018-08-13T11:04:53.392Z,2.20
2018-08-13T11:07:21.668Z,2.17
2018-08-13T11:09:49.921Z,1.57
2018-08-13T11:12:18.229Z,2.20
2018-08-13T11:14:46.563Z,2.47
2018-08-13T11:17:14.880Z,2.17
2018-08-13T11:19:43.162Z,2.50
2018-08-13T11:22:11.738Z,2.47
2018-08-13T11:24:40.077Z,2.60
2018-08-13T11:27:12.859Z,2.00
2018-08-13T11:29:43.512Z,2.33
2018-08-13T11:32:11.962Z,2.63
2018-08-13T11:34:40.569Z,2.47
2018-08-13T11:37:09.174Z,2.53
2018-08-13T11:39:37.419Z,2.67
2018-08-13T11:42:05.928Z,3.00
2018-08-13T11:44:34.188Z,2.87
2018-08-13T11:47:02.448Z,2.60
2018-08-13T11:49:30.701Z,3.30
2018-08-13T11:51:59.012Z,2.83
2018-08-13T11:54:27.372Z,2.70
2018-08-13T11:56:55.650Z,3.17
2018-08-13T11:59:24.892Z,3.10
2018-08-13T12:01:53.236Z,2.50
2018-08-13T12:04:21.486Z,2.80
2018-08-13T12:06:49.801Z,3.63
2018-08-13T12:09:18.025Z,3.13
2018-08-13T12:11:46.284Z,3.10
2018-08-13T12:14:14.563Z,3.20
2018-08-13T12:16:42.867Z,3.70
2018-08-13T12:19:11.146Z,3.20
2018-08-13T12:21:39.443Z,3.20
2018-08-13T12:24:07.719Z,3.90
2018-08-13T12:26:36.001Z,4.43
2018-08-13T12:29:04.644Z,3.07
2018-08-13T12:31:32.900Z,3.43
2018-08-13T12:34:01.187Z,3.20
2018-08-13T12:36:29.512Z,3.43
2018-08-13T12:38:57.773Z,3.00
2018-08-13T12:41:26.057Z,3.10
2018-08-13T12:43:54.411Z,2.80
2018-08-13T12:46:22.641Z,2.90
2018-08-13T12:48:50.943Z,2.93
2018-08-13T12:51:19.173Z,2.67
2018-08-13T12:53:47.475Z,1.37
2018-08-13T12:56:15.702Z,0.97
2018-08-13T12:58:43.972Z,0.70
2018-08-13T13:01:12.231Z,0.93
2018-08-13T13:03:41.182Z,0.90
2018-08-13T13:06:09.409Z,0.90
2018-08-13T13:08:37.728Z,1.00
2018-08-13T13:11:06.061Z,1.00
2018-08-13T13:13:34.316Z,1.10
2018-08-13T13:16:02.637Z,0.87
2018-08-13T13:18:31.039Z,1.10
2018-08-13T13:20:59.254Z,1.20
2018-08-13T13:23:27.536Z,1.20
2018-08-13T13:25:55.851Z,1.20
2018-08-13T13:28:24.143Z,1.03
2018-08-13T13:30:52.456Z,0.90
2018-08-13T13:33:20.730Z,1.10
2018-08-13T13:35:49.022Z,1.07
2018-08-13T13:38:17.283Z,1.00
2018-08-13T13:40:45.568Z,1.03
2018-08-13T13:43:13.892Z,0.90
2018-08-13T13:45:42.127Z,1.20
2018-08-13T13:48:10.381Z,1.10
2018-08-13T13:50:38.648Z,0.87
2018-08-13T13:53:07.062Z,1.20
2018-08-13T13:55:35.337Z,1.03
2018-08-13T13:58:03.594Z,1.10
2018-08-13T14:00:31.988Z,0.87
2018-08-13T14:03:00.247Z,1.00
2018-08-13T14:05:28.619Z,0.80
2018-08-13T14:07:56.951Z,0.90
2018-08-13T14:10:25.283Z,0.87
2018-08-13T14:12:53.557Z,1.00
2018-08-13T14:15:22.559Z,0.70
2018-08-13T14:17:51.160Z,0.83
2018-08-13T14:20:19.703Z,1.13
2018-08-13T14:22:47.965Z,0.80
2018-08-13T14:25:16.283Z,0.77
2018-08-13T14:27:44.580Z,0.80
2018-08-13T14:30:18.567Z,0.60
2018-08-13T14:32:47.483Z,0.60
2018-08-13T14:35:15.879Z,0.63
2018-08-13T14:37:44.461Z,0.60
2018-08-13T14:40:13.389Z,0.57
2018-08-13T14:42:42.500Z,0.50
2018-08-13T14:45:12.477Z,0.70
2018-08-13T14:47:41.681Z,0.60
2018-08-13T14:50:10.851Z,0.50
2018-08-13T14:52:40.024Z,0.67
2018-08-13T14:55:08.346Z,0.70
2018-08-13T14:57:36.613Z,0.70
2018-08-13T15:00:16.328Z,0.60
2018-08-13T15:02:44.577Z,0.73
2018-08-13T15:05:12.947Z,0.63
2018-08-13T15:07:41.176Z,0.83
2018-08-13T15:10:12.658Z,0.57
2018-08-13T15:12:41.047Z,0.70
2018-08-13T15:15:10.925Z,0.90
2018-08-13T15:17:39.373Z,0.67
2018-08-13T15:20:10.541Z,0.60
2018-08-13T15:22:38.801Z,0.60
2018-08-13T15:25:08.048Z,0.80
2018-08-13T15:27:37.035Z,0.73
2018-08-13T15:30:08.101Z,0.67
2018-08-13T15:32:36.364Z,0.60
2018-08-13T15:35:05.318Z,0.80
2018-08-13T15:37:33.579Z,0.80
2018-08-13T15:40:02.080Z,0.60
2018-08-13T15:42:30.315Z,0.70
2018-08-13T15:44:58.675Z,0.70
2018-08-13T15:47:27.001Z,0.50
2018-08-13T15:49:55.248Z,0.57
2018-08-13T15:52:23.553Z,0.80
2018-08-13T15:54:52.015Z,0.43
2018-08-13T15:57:20.307Z,0.60
2018-08-13T15:59:48.635Z,0.70
2018-08-13T16:02:17.021Z,0.70
2018-08-13T16:04:45.292Z,0.50
2018-08-13T16:07:13.567Z,0.40
2018-08-13T16:09:41.856Z,0.53
2018-08-13T16:12:10.345Z,0.40
2018-08-13T16:14:39.057Z,0.60
2018-08-13T16:17:07.613Z,0.57
2018-08-13T16:19:35.925Z,0.60
2018-08-13T16:22:04.727Z,0.60
2018-08-13T16:24:33.128Z,0.63
2018-08-13T16:27:01.416Z,0.60
2018-08-13T16:29:30.836Z,0.67
2018-08-13T16:31:59.408Z,0.50
2018-08-13T16:34:27.629Z,0.60
2018-08-13T16:36:55.963Z,0.60
2018-08-13T16:39:24.249Z,0.70
2018-08-13T16:41:52.684Z,0.80
2018-08-13T16:44:20.936Z,0.80
2018-08-13T16:46:49.224Z,0.80
2018-08-13T16:49:17.475Z,0.60
2018-08-13T16:51:45.728Z,0.70
2018-08-13T16:54:14.069Z,0.87
2018-08-13T16:56:42.446Z,0.73
2018-08-13T16:59:10.703Z,1.47
2018-08-13T17:01:38.971Z,0.90
2018-08-13T17:04:07.217Z,0.70
2018-08-13T17:06:35.459Z,0.60
2018-08-13T17:09:06.277Z,0.70
2018-08-13T17:11:34.553Z,0.63
2018-08-13T17:14:04.559Z,0.80
2018-08-13T17:16:32.726Z,0.87
2018-08-13T17:19:00.960Z,0.70
2018-08-13T17:21:29.256Z,0.60
2018-08-13T17:23:57.582Z,0.43
2018-08-13T17:26:25.912Z,0.73
2018-08-13T17:28:54.289Z,0.60
2018-08-13T17:31:22.600Z,0.60
2018-08-13T17:36:25.493Z,0.40
2018-08-13T17:38:53.804Z,0.50
2018-08-13T17:41:22.076Z,0.50
2018-08-13T17:43:50.392Z,0.50
2018-08-13T17:46:18.681Z,0.30
2018-08-13T17:48:46.970Z,0.50
2018-08-13T17:51:15.279Z,0.50
2018-08-13T17:53:44.501Z,0.50
2018-08-13T17:56:12.808Z,0.50
2018-08-13T17:58:41.104Z,0.60
2018-08-13T18:01:09.391Z,0.50
2018-08-13T18:03:37.579Z,0.60
2018-08-13T18:06:05.975Z,0.47
2018-08-13T18:08:34.184Z,0.50
2018-08-13T18:11:02.502Z,0.50
2018-08-13T18:13:30.785Z,0.63
2018-08-13T18:15:59.073Z,0.50
2018-08-13T18:18:27.302Z,0.50
2018-08-13T18:20:55.594Z,0.60
2018-08-13T18:23:23.860Z,0.70
2018-08-13T18:25:52.085Z,0.80
2018-08-13T18:28:20.436Z,0.50
2018-08-13T18:30:48.700Z,0.80
2018-08-13T18:33:16.962Z,0.70
2018-08-13T18:35:45.235Z,0.50
2018-08-13T18:38:13.464Z,0.60
2018-08-13T18:40:41.746Z,0.67
2018-08-13T18:43:09.975Z,0.77
2018-08-13T18:45:38.270Z,0.77
2018-08-13T18:48:06.596Z,0.90
2018-08-13T18:50:34.899Z,0.70
2018-08-13T18:53:03.194Z,0.50
2018-08-13T18:55:31.445Z,0.60
2018-08-13T18:57:59.755Z,0.50
2018-08-13T19:00:29.519Z,0.60
2018-08-13T19:02:59.931Z,0.60
2018-08-13T19:05:28.205Z,0.60
2018-08-13T19:07:56.473Z,0.50
2018-08-13T19:10:24.777Z,0.80
2018-08-13T19:12:53.041Z,0.80
2018-08-13T19:15:23.719Z,0.57
2018-08-13T19:17:52.454Z,0.60
2018-08-13T19:20:20.758Z,0.60
2018-08-13T19:22:49.280Z,0.70
2018-08-13T19:25:19.728Z,0.70
2018-08-13T19:27:48.086Z,0.80
2018-08-13T19:30:17.368Z,0.67
2018-08-13T19:32:46.964Z,0.70
2018-08-13T19:35:15.254Z,0.80
2018-08-13T19:37:43.591Z,0.57
2018-08-13T19:40:14.168Z,0.60
2018-08-13T19:42:42.890Z,0.63
2018-08-13T19:45:12.266Z,0.70
2018-08-13T19:47:40.532Z,0.50
2018-08-13T19:50:10.066Z,0.70
2018-08-13T19:52:39.326Z,0.50
2018-08-13T19:55:08.679Z,0.40
2018-08-13T19:57:36.951Z,0.60
2018-08-13T20:00:08.876Z,0.70
2018-08-13T20:02:37.154Z,0.57
2018-08-13T20:05:05.408Z,0.73
2018-08-13T20:07:33.687Z,0.70
2018-08-13T20:10:01.998Z,0.50
2018-08-13T20:12:30.223Z,0.60
2018-08-13T20:14:58.497Z,0.50
2018-08-13T20:17:26.735Z,0.70
2018-08-13T20:19:55.014Z,0.57
2018-08-13T20:22:23.280Z,0.70
2018-08-13T20:24:51.516Z,0.60
2018-08-13T20:27:19.797Z,0.80
2018-08-13T20:29:48.347Z,0.60
2018-08-13T20:32:16.595Z,1.00
2018-08-13T20:34:44.877Z,0.90
2018-08-13T20:37:13.111Z,1.10
2018-08-13T20:39:41.348Z,0.97
2018-08-13T20:42:09.609Z,0.60
2018-08-13T20:44:37.908Z,0.70
2018-08-13T20:47:06.160Z,0.83
2018-08-13T20:49:34.436Z,0.63
2018-08-13T20:52:02.780Z,0.80
2018-08-13T20:54:31.067Z,0.70
2018-08-13T20:56:59.352Z,0.70
2018-08-13T20:59:28.845Z,1.20
2018-08-13T21:01:57.103Z,0.77
2018-08-13T21:04:25.404Z,0.73
2018-08-13T21:06:53.702Z,0.60
2018-08-13T21:09:21.949Z,0.90
2018-08-13T21:11:50.226Z,0.60
2018-08-13T21:14:18.464Z,0.70
2018-08-13T21:16:46.707Z,0.80
2018-08-13T21:19:14.923Z,0.70
2018-08-13T21:21:43.176Z,0.60
2018-08-13T21:24:11.488Z,0.70
2018-08-13T21:29:19.187Z,0.60
2018-08-13T21:31:47.446Z,0.70
2018-08-13T21:34:15.708Z,0.70
2018-08-13T21:36:43.940Z,0.80
2018-08-13T21:39:12.589Z,0.90
2018-08-13T21:41:41.298Z,0.80
2018-08-13T21:44:09.580Z,0.77
2018-08-13T21:46:37.958Z,0.80
2018-08-13T21:49:06.281Z,0.80
2018-08-13T21:51:34.520Z,0.70
2018-08-13T21:54:02.803Z,0.87
2018-08-13T21:56:31.134Z,0.77
2018-08-13T21:58:59.363Z,0.80
2018-08-13T22:01:45.699Z,0.80
2018-08-13T22:04:15.084Z,0.60
2018-08-13T22:06:43.632Z,0.70
2018-08-13T22:09:12.161Z,0.63
2018-08-13T22:11:40.492Z,0.70
2018-08-13T22:14:09.685Z,0.80
2018-08-13T22:16:38.011Z,0.60
2018-08-13T22:19:06.912Z,0.70
2018-08-13T22:21:35.229Z,0.57
2018-08-13T22:24:14.829Z,0.80
2018-08-13T22:26:43.100Z,0.70
2018-08-13T22:29:11.353Z,0.67
2018-08-13T22:31:39.645Z,0.80
2018-08-13T22:34:08.598Z,0.60
2018-08-13T22:36:36.919Z,0.80
2018-08-13T22:39:06.796Z,0.70
2018-08-13T22:41:35.100Z,0.90
2018-08-13T22:44:03.369Z,0.80
2018-08-13T22:46:31.760Z,0.70
2018-08-13T22:49:00.032Z,0.80
2018-08-13T22:51:28.323Z,0.70
2018-08-13T22:53:56.584Z,0.70
2018-08-13T22:56:24.800Z,0.60
2018-08-13T22:58:53.056Z,0.60
2018-08-13T23:01:21.293Z,0.80
2018-08-13T23:03:49.545Z,0.83
2018-08-13T23:06:17.780Z,0.60
2018-08-13T23:08:46.079Z,0.60
2018-08-13T23:11:14.325Z,0.80
2018-08-13T23:13:42.636Z,0.63
2018-08-13T23:16:10.923Z,0.80
2018-08-13T23:18:39.233Z,0.60
2018-08-13T23:21:07.464Z,0.73
2018-08-13T23:23:35.659Z,0.73
2018-08-13T23:26:04.063Z,0.70
2018-08-13T23:28:32.364Z,0.50
2018-08-13T23:31:00.667Z,0.70
2018-08-13T23:33:28.914Z,0.83
2018-08-13T23:35:57.198Z,0.70
2018-08-13T23:38:25.479Z,1.00
2018-08-13T23:40:53.828Z,0.70
2018-08-13T23:43:22.090Z,0.77
2018-08-13T23:45:50.347Z,0.80
2018-08-13T23:48:18.624Z,0.80
2018-08-13T23:50:46.919Z,0.80
2018-08-13T23:53:15.229Z,0.70
2018-08-13T23:55:43.504Z,0.80
2018-08-13T23:58:12.840Z,0.70
